Time;durP1;ratioP1;P1;durP2;ratioP2;P2;SDS_P1;SDS_P2;PMS_P1;PMS_P2;Temp;Humidity;BMP_temperature;BMP_pressure;BME280_temperature;BME280_humidity;BME280_pressure;Samples;Min_cycle;Max_cycle;Signal;HPM_P1;HPM_P2
2021/04/05 00:00:56;;;;;;;25.02;10.80;;;;;;;0.68;57.87;98137.25;5015593;28;20027;-77
2021/04/05 00:03:21;;;;;;;23.20;10.80;;;;;;;0.71;57.69;98129.50;4988347;28;20026;-77
2021/04/05 00:05:50;;;;;;;22.73;10.38;;;;;;;0.71;58.37;98134.06;5006602;28;20041;-79
2021/04/05 00:08:15;;;;;;;20.48;9.70;;;;;;;0.73;57.90;98126.53;4977276;28;20042;-77
2021/04/05 00:10:48;;;;;;;21.13;9.93;;;;;;;0.75;57.90;98127.13;5010923;28;20026;-78
2021/04/05 00:13:22;;;;;;;20.05;10.60;;;;;;;0.76;58.12;98120.66;5005581;28;20061;-77
2021/04/05 00:15:47;;;;;;;23.50;10.80;;;;;;;0.78;58.20;98120.44;5007345;28;20038;-76
2021/04/05 00:18:16;;;;;;;22.20;10.38;;;;;;;0.81;58.06;98125.38;5012636;28;20038;-77
2021/04/05 00:21:22;;;;;;;23.85;10.32;;;;;;;0.81;58.12;98118.06;5008793;28;20029;-77
2021/04/05 00:23:49;;;;;;;17.90;9.38;;;;;;;0.84;57.74;98111.34;5027301;28;20036;-77
2021/04/05 00:26:15;;;;;;;18.70;10.65;;;;;;;0.85;58.22;98108.44;5016441;28;20168;-77
2021/04/05 00:28:41;;;;;;;27.05;11.45;;;;;;;0.87;58.09;98110.88;5009338;28;20498;-77
2021/04/05 00:31:07;;;;;;;21.98;9.63;;;;;;;0.89;58.01;98108.75;5010095;28;20026;-77
2021/04/05 00:33:32;;;;;;;19.60;10.23;;;;;;;0.94;57.81;98108.06;5009426;28;20026;-77
2021/04/05 00:35:57;;;;;;;21.75;9.07;;;;;;;0.94;58.00;98100.75;5013538;28;20056;-77
2021/04/05 00:38:24;;;;;;;23.17;10.98;;;;;;;0.96;57.72;98089.72;5009629;28;20030;-76
2021/04/05 00:40:58;;;;;;;21.88;10.43;;;;;;;0.97;57.92;98078.66;5009441;28;20484;-77
2021/04/05 00:43:24;;;;;;;21.33;11.52;;;;;;;1.00;57.94;98074.69;5009592;28;20018;-77
2021/04/05 00:45:50;;;;;;;19.10;10.32;;;;;;;1.02;57.79;98069.81;5010619;28;20022;-78
2021/04/05 00:48:16;;;;;;;20.50;10.15;;;;;;;1.03;57.92;98066.91;5016565;28;20385;-76
2021/04/05 00:50:52;;;;;;;20.67;10.55;;;;;;;1.04;57.81;98067.69;5002341;28;20086;-77
2021/04/05 00:53:21;;;;;;;20.40;10.45;;;;;;;1.03;57.86;98057.97;5009141;28;20030;-76
2021/04/05 00:55:47;;;;;;;18.80;10.32;;;;;;;1.01;57.90;98047.41;5011303;28;20113;-76
2021/04/05 00:58:13;;;;;;;21.48;11.07;;;;;;;1.00;57.23;98047.69;5009266;28;20026;-76
2021/04/05 01:00:49;;;;;;;18.55;10.52;;;;;;;0.98;57.68;98034.41;5014769;28;20087;-76
2021/04/05 01:03:18;;;;;;;25.67;11.57;;;;;;;0.97;57.50;98042.75;5010492;28;20034;-76
2021/04/05 01:05:45;;;;;;;21.05;10.52;;;;;;;0.97;57.79;98040.06;5022102;28;20042;-77
2021/04/05 01:08:14;;;;;;;18.88;8.98;;;;;;;0.96;57.66;98031.13;5082111;28;20036;-77
2021/04/05 01:10:40;;;;;;;18.75;10.75;;;;;;;0.95;57.73;98034.88;5017183;28;20075;-77
2021/04/05 01:13:06;;;;;;;20.30;10.05;;;;;;;0.94;57.99;98037.84;5010461;28;20021;-77
2021/04/05 01:15:33;;;;;;;18.15;10.27;;;;;;;0.93;58.34;98039.72;5023969;28;20105;-77
2021/04/05 01:17:59;;;;;;;22.98;11.20;;;;;;;0.91;57.83;98022.13;5010512;28;20026;-77
2021/04/05 01:20:26;;;;;;;20.83;11.57;;;;;;;0.88;57.94;98004.53;5010486;28;20083;-76
2021/04/05 01:22:53;;;;;;;20.00;10.65;;;;;;;0.83;57.75;98005.25;5010183;28;20030;-78
2021/04/05 01:25:21;;;;;;;20.65;10.85;;;;;;;0.84;58.08;98001.50;5016772;28;20059;-77
2021/04/05 01:27:47;;;;;;;21.23;10.73;;;;;;;0.83;57.77;98002.56;5055785;28;20068;-77
2021/04/05 01:30:30;;;;;;;22.52;11.43;;;;;;;0.83;58.32;97991.75;5029962;28;20053;-78
2021/04/05 01:33:30;;;;;;;20.23;10.32;;;;;;;0.82;58.18;97992.81;5020522;28;20022;-78
2021/04/05 01:36:07;;;;;;;22.65;10.93;;;;;;;0.80;58.31;97989.53;4992211;28;20042;-77
2021/04/05 01:38:34;;;;;;;20.80;10.25;;;;;;;0.76;58.08;97977.59;5006564;28;20452;-78
2021/04/05 01:41:02;;;;;;;21.30;11.07;;;;;;;0.77;58.39;97971.13;5009356;28;20069;-77
2021/04/05 01:43:27;;;;;;;21.10;10.05;;;;;;;0.75;58.34;97975.97;5010341;28;20065;-77
2021/04/05 01:45:55;;;;;;;22.58;10.73;;;;;;;0.75;58.28;97970.56;5016451;28;20108;-78
2021/04/05 01:48:26;;;;;;;20.30;10.75;;;;;;;0.74;58.17;97953.56;5017155;28;20517;-78
2021/04/05 01:51:03;;;;;;;20.00;9.82;;;;;;;0.72;58.27;97944.88;5077033;28;20039;-78
2021/04/05 01:53:30;;;;;;;19.10;9.70;;;;;;;0.70;58.60;97936.22;5112238;28;20038;-78
2021/04/05 01:56:00;;;;;;;20.92;10.10;;;;;;;0.69;57.92;97948.06;5112037;28;20036;-78
2021/04/05 01:58:26;;;;;;;19.27;9.75;;;;;;;0.68;58.03;97942.91;5112716;28;20042;-77
2021/04/05 02:00:52;;;;;;;16.33;8.57;;;;;;;0.66;58.41;97934.22;5103576;28;20077;-78
2021/04/05 02:03:18;;;;;;;16.73;9.30;;;;;;;0.65;58.55;97927.19;5112822;28;20035;-78
2021/04/05 02:05:59;;;;;;;15.60;8.38;;;;;;;0.63;58.32;97932.03;5065299;28;20371;-78
2021/04/05 02:08:26;;;;;;;16.00;8.73;;;;;;;0.63;58.45;97932.84;5001613;28;20045;-77
2021/04/05 02:10:53;;;;;;;15.65;8.02;;;;;;;0.60;58.13;97933.34;5060962;28;20031;-77
2021/04/05 02:13:22;;;;;;;14.90;8.13;;;;;;;0.59;58.52;97931.69;5111597;28;20482;-77
2021/04/05 02:15:49;;;;;;;15.27;8.07;;;;;;;0.57;58.69;97918.47;5050036;28;20477;-78
2021/04/05 02:18:14;;;;;;;15.77;8.43;;;;;;;0.57;58.87;97923.03;5016444;28;20675;-78
2021/04/05 02:20:41;;;;;;;14.20;8.38;;;;;;;0.57;58.79;97918.47;5009952;28;20059;-77
2021/04/05 02:23:06;;;;;;;15.82;8.52;;;;;;;0.55;58.78;97908.97;5009256;28;20105;-77
2021/04/05 02:25:34;;;;;;;15.15;8.95;;;;;;;0.55;58.67;97900.88;5009627;28;20125;-77
2021/04/05 02:28:02;;;;;;;13.50;7.93;;;;;;;0.54;58.63;97888.44;5008973;28;20048;-77
2021/04/05 02:30:29;;;;;;;15.60;8.95;;;;;;;0.56;58.42;97889.00;5026380;28;20120;-77
2021/04/05 02:33:01;;;;;;;15.48;8.10;;;;;;;0.56;58.73;97883.63;5067220;28;20816;-78
2021/04/05 02:35:28;;;;;;;17.65;8.43;;;;;;;0.58;58.46;97885.03;4991801;28;20035;-78
2021/04/05 02:37:56;;;;;;;16.85;8.15;;;;;;;0.61;58.57;97882.91;5008730;28;20087;-76
2021/04/05 02:40:22;;;;;;;14.73;7.88;;;;;;;0.62;58.70;97879.94;5015645;28;20026;-78
2021/04/05 02:42:49;;;;;;;13.68;7.25;;;;;;;0.65;58.62;97870.53;5008700;28;20030;-78
2021/04/05 02:45:19;;;;;;;15.07;8.43;;;;;;;0.65;58.68;97863.25;5007647;28;20034;-78
2021/04/05 02:47:47;;;;;;;14.25;7.80;;;;;;;0.65;58.49;97860.56;5044131;28;20055;-78
2021/04/05 02:50:14;;;;;;;10.82;6.68;;;;;;;0.67;58.42;97857.59;5048987;28;20055;-78
2021/04/05 02:52:40;;;;;;;13.32;7.13;;;;;;;0.67;58.48;97847.63;5109612;28;20027;-77
2021/04/05 02:55:09;;;;;;;14.43;7.40;;;;;;;0.69;58.42;97833.88;5007205;28;20028;-78
2021/04/05 02:57:36;;;;;;;13.32;7.20;;;;;;;0.67;58.27;97830.59;5011095;28;20037;-78
2021/04/05 03:00:08;;;;;;;12.13;7.40;;;;;;;0.65;58.41;97827.34;5011019;28;20358;-78
2021/04/05 03:02:34;;;;;;;13.60;6.88;;;;;;;0.62;58.21;97812.47;5028972;28;20079;-80
2021/04/05 03:05:02;;;;;;;11.18;5.93;;;;;;;0.64;58.47;97817.59;5040107;28;20039;-80
2021/04/05 03:07:27;;;;;;;14.48;7.70;;;;;;;0.64;58.45;97804.13;5067565;28;20113;-79
2021/04/05 03:09:53;;;;;;;23.45;9.38;;;;;;;0.66;58.57;97810.09;5027172;28;20420;-79
2021/04/05 03:12:18;;;;;;;58.88;15.05;;;;;;;0.69;58.40;97817.69;5017507;28;20541;-77
2021/04/05 03:14:44;;;;;;;57.20;15.65;;;;;;;0.70;58.24;97806.66;5012691;28;20025;-79
2021/04/05 03:17:10;;;;;;;44.38;13.20;;;;;;;0.70;57.86;97808.53;5033342;28;20069;-77
2021/04/05 03:19:40;;;;;;;71.55;17.80;;;;;;;0.71;58.64;97800.19;5023073;28;20041;-77
2021/04/05 03:22:06;;;;;;;54.67;14.25;;;;;;;0.74;58.25;97797.00;5009065;28;20025;-76
2021/04/05 03:24:36;;;;;;;63.35;15.25;;;;;;;0.77;57.96;97787.56;5009100;28;20030;-76
2021/04/05 03:27:02;;;;;;;50.53;13.18;;;;;;;0.78;58.24;97783.00;5008929;28;20404;-76
2021/04/05 03:29:31;;;;;;;52.67;12.88;;;;;;;0.78;58.20;97767.63;5009516;28;20053;-77
2021/04/05 03:31:59;;;;;;;93.53;18.67;;;;;;;0.81;57.86;97777.13;5013068;28;20033;-76
2021/04/05 03:34:26;;;;;;;113.70;23.00;;;;;;;0.81;57.75;97767.13;5008845;28;20021;-76
2021/04/05 03:36:54;;;;;;;92.68;20.45;;;;;;;0.81;57.62;97759.03;5009031;28;20025;-76
2021/04/05 03:39:20;;;;;;;31.70;9.00;;;;;;;0.82;57.90;97744.47;5009437;28;20104;-77
2021/04/05 03:41:48;;;;;;;58.97;14.45;;;;;;;0.85;57.73;97752.06;5010899;28;20045;-76
2021/04/05 03:44:23;;;;;;;26.67;9.27;;;;;;;0.89;57.82;97736.16;5009377;28;20033;-76
2021/04/05 03:46:52;;;;;;;23.48;6.93;;;;;;;0.92;57.76;97730.25;5005401;28;20111;-76
2021/04/05 03:49:34;;;;;;;38.30;10.77;;;;;;;0.94;57.27;97732.72;5008619;28;20022;-76
2021/04/05 03:52:12;;;;;;;33.20;8.98;;;;;;;0.95;57.52;97718.16;4991201;28;20026;-77
2021/04/05 03:54:54;;;;;;;40.75;10.23;;;;;;;0.94;56.97;97720.03;5008905;28;20026;-77
2021/04/05 03:57:23;;;;;;;24.52;7.63;;;;;;;0.96;56.97;97714.41;5011962;28;20030;-76
2021/04/05 03:59:52;;;;;;;15.50;6.40;;;;;;;0.97;57.18;97703.31;5034029;28;20140;-76
2021/04/05 04:02:24;;;;;;;26.63;8.52;;;;;;;0.98;57.03;97701.47;5012219;28;20064;-77
2021/04/05 04:05:08;;;;;;;14.82;6.43;;;;;;;0.95;56.94;97697.38;4994144;28;20079;-77
2021/04/05 04:07:38;;;;;;;26.67;8.18;;;;;;;0.96;57.15;97688.19;5012106;28;20033;-77
2021/04/05 04:10:08;;;;;;;18.00;6.82;;;;;;;0.97;56.92;97689.03;5012042;28;20026;-77
2021/04/05 04:12:34;;;;;;;;;;;;;;;0.97;57.09;97683.63;5012803;28;20474;-77
2021/04/05 04:15:00;;;;;;;31.83;8.70;;;;;;;0.96;57.13;97676.59;5037570;28;20011;-77
2021/04/05 04:17:27;;;;;;;16.98;6.30;;;;;;;0.94;56.84;97676.03;5011884;28;20022;-77
2021/04/05 04:19:55;;;;;;;13.73;5.70;;;;;;;0.92;57.07;97654.66;5011868;28;20529;-77
2021/04/05 04:22:21;;;;;;;15.73;6.38;;;;;;;0.92;57.09;97654.66;5013331;28;20067;-76
2021/04/05 04:24:47;;;;;;;13.85;5.20;;;;;;;0.93;56.81;97644.69;5012501;28;20419;-77
2021/04/05 04:27:14;;;;;;;13.30;6.25;;;;;;;0.95;56.86;97642.56;5011139;28;20029;-77
2021/04/05 04:29:40;;;;;;;12.57;6.35;;;;;;;0.97;57.20;97637.72;5008001;28;20100;-76
2021/04/05 04:32:06;;;;;;;15.65;6.40;;;;;;;1.01;56.80;97626.16;5011066;28;20026;-76
2021/04/05 04:34:31;;;;;;;10.38;5.38;;;;;;;1.04;57.05;97622.94;5010900;28;20034;-77
2021/04/05 04:37:02;;;;;;;12.02;5.63;;;;;;;1.10;56.91;97612.19;5011157;28;20030;-77
2021/04/05 04:39:29;;;;;;;15.60;6.63;;;;;;;1.12;56.88;97613.56;5011012;28;20025;-77
2021/04/05 04:41:54;;;;;;;18.35;6.88;;;;;;;1.11;56.86;97613.81;5054614;28;20099;-76
2021/04/05 04:44:19;;;;;;;17.27;8.10;;;;;;;1.14;56.60;97613.31;5028981;28;20105;-76
2021/04/05 04:46:45;;;;;;;20.85;8.57;;;;;;;1.15;56.46;97613.03;5012819;28;20022;-76
2021/04/05 04:49:12;;;;;;;15.15;7.07;;;;;;;1.19;56.54;97611.47;5010945;28;20022;-77
2021/04/05 04:51:39;;;;;;;15.55;6.63;;;;;;;1.22;56.36;97606.63;5017829;28;20022;-76
2021/04/05 04:54:07;;;;;;;11.95;5.85;;;;;;;1.26;56.30;97602.34;5010894;28;20022;-76
2021/04/05 04:56:33;;;;;;;11.88;5.50;;;;;;;1.31;56.48;97586.19;5008501;28;20385;-76
2021/04/05 04:59:04;;;;;;;11.38;5.80;;;;;;;1.36;56.27;97575.44;5010792;28;20026;-76
2021/04/05 05:01:31;;;;;;;9.85;5.95;;;;;;;1.41;56.03;97555.72;5010963;28;20507;-76
2021/04/05 05:03:59;;;;;;;9.57;5.47;;;;;;;1.47;56.17;97552.78;5017357;28;20061;-76
2021/04/05 05:06:27;;;;;;;11.23;5.60;;;;;;;1.55;55.76;97569.59;5010486;28;20062;-76
2021/04/05 05:08:54;;;;;;;11.32;6.03;;;;;;;1.60;56.11;97556.97;5009634;28;20511;-76
2021/04/05 05:11:19;;;;;;;11.13;5.05;;;;;;;1.68;55.54;97558.34;5010636;28;20489;-77
2021/04/05 05:13:45;;;;;;;10.15;5.65;;;;;;;1.74;55.27;97548.38;5010363;28;20431;-76
2021/04/05 05:16:11;;;;;;;8.55;5.10;;;;;;;1.82;54.98;97545.19;5017394;28;20037;-76
2021/04/05 05:18:37;;;;;;;8.95;4.18;;;;;;;1.90;54.96;97544.69;5010566;28;20072;-76
2021/04/05 05:21:07;;;;;;;12.35;6.30;;;;;;;1.97;54.82;97544.44;5017389;28;20052;-77
2021/04/05 05:23:36;;;;;;;11.63;5.63;;;;;;;2.06;54.20;97540.16;5010587;28;20037;-76
2021/04/05 05:26:03;;;;;;;11.32;5.38;;;;;;;2.14;54.45;97543.47;5006869;28;20025;-76
2021/04/05 05:28:31;;;;;;;11.35;4.72;;;;;;;2.21;53.90;97522.38;5010266;28;20307;-76
2021/04/05 05:30:57;;;;;;;11.68;6.38;;;;;;;2.28;53.85;97517.53;5010121;28;20026;-76
2021/04/05 05:33:22;;;;;;;9.40;4.60;;;;;;;2.35;54.10;97523.50;5010152;28;20029;-76
2021/04/05 05:35:51;;;;;;;11.82;6.22;;;;;;;2.44;53.76;97506.75;5022449;28;20033;-76
2021/04/05 05:38:17;;;;;;;10.10;5.10;;;;;;;2.52;53.18;97501.63;5022741;28;20021;-76
2021/04/05 05:40:45;;;;;;;10.98;5.50;;;;;;;2.62;52.61;97510.84;5010623;28;20552;-77
2021/04/05 05:43:36;;;;;;;11.52;5.85;;;;;;;2.70;53.08;97506.81;5010310;28;20108;-77
2021/04/05 05:46:23;;;;;;;12.43;6.00;;;;;;;2.84;52.64;97502.50;5009530;28;20041;-77
2021/04/05 05:49:19;;;;;;;9.13;5.00;;;;;;;2.95;51.73;97506.84;5013208;28;20431;-77
2021/04/05 05:52:30;;;;;;;10.50;4.68;;;;;;;3.05;52.49;97497.09;5010437;28;20492;-77
2021/04/05 05:55:27;;;;;;;10.80;4.70;;;;;;;3.15;51.30;97493.56;5010723;28;20037;-77
2021/04/05 05:58:01;;;;;;;10.30;4.80;;;;;;;3.23;51.32;97485.69;5010218;28;20053;-76
2021/04/05 06:00:32;;;;;;;11.10;5.03;;;;;;;3.33;50.09;97493.00;5014293;28;20045;-77
2021/04/05 06:03:31;;;;;;;11.35;5.57;;;;;;;3.42;50.53;97491.38;5011934;28;20021;-77
2021/04/05 06:06:16;;;;;;;14.10;5.95;;;;;;;3.54;49.96;97490.28;5007218;28;20037;-77
2021/04/05 06:08:55;;;;;;;10.05;4.75;;;;;;;3.61;49.28;97496.22;5009640;28;20063;-77
2021/04/05 06:12:02;;;;;;;9.68;5.32;;;;;;;3.68;50.30;97485.88;5010264;28;20030;-76
2021/04/05 06:14:54;;;;;;;8.68;5.45;;;;;;;3.76;49.52;97479.09;5009922;28;20026;-77
2021/04/05 06:17:31;;;;;;;10.68;5.82;;;;;;;3.85;48.65;97460.34;5007410;28;20029;-77
2021/04/05 06:20:16;;;;;;;10.40;6.85;;;;;;;3.92;48.83;97451.91;5023954;28;20507;-77
2021/04/05 06:23:16;;;;;;;10.63;6.30;;;;;;;4.01;49.48;97452.97;5009736;28;20474;-76
2021/04/05 06:26:02;;;;;;;9.40;6.03;;;;;;;4.10;48.97;97451.31;4929922;29;20036;-76
2021/04/05 06:28:52;;;;;;;29.52;11.07;;;;;;;4.20;48.57;97447.72;5004104;28;20512;-76
2021/04/05 06:31:47;;;;;;;15.45;6.65;;;;;;;4.28;48.73;97430.06;5009599;28;20108;-76
2021/04/05 06:34:18;;;;;;;12.95;7.07;;;;;;;4.35;48.41;97433.25;5031825;28;20107;-77
2021/04/05 06:36:52;;;;;;;22.83;11.25;;;;;;;4.42;48.92;97439.19;5011442;28;20041;-77
2021/04/05 06:39:24;;;;;;;15.02;8.00;;;;;;;4.50;48.10;97431.53;5009437;28;20355;-78
2021/04/05 06:41:55;;;;;;;29.00;15.10;;;;;;;4.58;48.11;97422.81;5009367;28;20404;-77
2021/04/05 06:44:45;;;;;;;17.05;9.40;;;;;;;4.67;48.33;97420.28;4991729;28;20022;-77
2021/04/05 06:47:48;;;;;;;15.15;8.73;;;;;;;4.74;48.39;97418.84;4991780;28;20496;-78
2021/04/05 06:50:26;;;;;;;15.20;7.68;;;;;;;4.81;47.88;97426.69;5018230;28;20038;-78
2021/04/05 06:53:19;;;;;;;14.65;6.78;;;;;;;4.91;48.22;97412.22;4990857;28;20026;-77
2021/04/05 06:55:57;;;;;;;12.50;5.53;;;;;;;5.01;47.73;97414.03;5007663;28;20456;-77
2021/04/05 06:58:25;;;;;;;13.25;6.43;;;;;;;5.10;47.76;97416.94;5008705;28;20034;-78
2021/04/05 07:01:16;;;;;;;13.13;6.60;;;;;;;5.18;47.20;97411.69;5010502;28;20026;-78
2021/04/05 07:03:41;;;;;;;14.23;7.38;;;;;;;5.30;46.07;97411.31;5014306;28;20037;-78
2021/04/05 07:06:37;;;;;;;12.75;7.45;;;;;;;5.39;46.69;97405.25;5016964;28;20042;-76
2021/04/05 07:09:18;;;;;;;13.02;6.55;;;;;;;5.48;47.26;97401.59;5007870;28;20057;-78
2021/04/05 07:11:53;;;;;;;11.65;5.65;;;;;;;5.59;46.25;97398.78;5008231;28;20130;-78
2021/04/05 07:14:32;;;;;;;15.73;7.75;;;;;;;5.68;46.68;97398.94;5008256;28;20015;-78
2021/04/05 07:17:17;;;;;;;21.92;9.98;;;;;;;5.79;46.70;97390.34;5022834;28;20465;-78
2021/04/05 07:19:59;;;;;;;17.70;6.90;;;;;;;5.94;46.42;97394.00;5010029;28;20034;-77
2021/04/05 07:22:53;;;;;;;24.15;9.40;;;;;;;6.03;46.05;97392.28;4990271;28;20107;-76
2021/04/05 07:25:49;;;;;;;22.60;8.55;;;;;;;6.15;45.52;97378.22;5008183;28;20477;-78
2021/04/05 07:28:27;;;;;;;17.33;7.60;;;;;;;6.23;45.41;97377.56;5008759;28;20034;-76
2021/04/05 07:31:26;;;;;;;15.10;6.40;;;;;;;6.31;44.80;97378.00;5006550;28;20532;-78
2021/04/05 07:33:56;;;;;;;33.47;11.38;;;;;;;6.41;45.31;97369.66;5000126;28;20039;-76
2021/04/05 07:36:34;;;;;;;;;;;;;;;6.51;45.23;97369.50;4990850;28;20474;-77
2021/04/05 07:39:19;;;;;;;15.32;7.05;;;;;;;6.67;45.87;97351.00;5007896;28;19913;-76
2021/04/05 07:42:03;;;;;;;23.92;9.35;;;;;;;6.83;45.62;97339.84;5007735;28;20022;-76
2021/04/05 07:44:47;;;;;;;16.88;8.98;;;;;;;6.93;44.96;97338.88;5005820;28;20018;-76
2021/04/05 07:47:37;;;;;;;18.63;7.38;;;;;;;7.02;44.68;97339.78;5019005;28;20030;-77
2021/04/05 07:50:15;;;;;;;13.65;5.97;;;;;;;7.10;43.50;97344.56;5010105;28;20034;-76
2021/04/05 07:53:16;;;;;;;15.73;6.60;;;;;;;7.18;43.81;97348.50;5007815;28;20143;-76
2021/04/05 07:55:43;;;;;;;20.38;8.40;;;;;;;7.27;44.22;97335.78;5010901;28;20042;-76
2021/04/05 07:58:29;;;;;;;16.95;7.47;;;;;;;7.33;44.18;97325.56;5007595;28;20022;-76
2021/04/05 08:01:10;;;;;;;19.17;7.78;;;;;;;7.44;44.39;97321.53;5016291;28;20030;-76
2021/04/05 08:04:08;;;;;;;16.35;7.32;;;;;;;7.56;43.47;97318.28;5076551;28;20024;-77
2021/04/05 08:07:05;;;;;;;18.25;8.80;;;;;;;7.66;44.07;97300.91;5042924;28;20050;-74
2021/04/05 08:09:40;;;;;;;17.38;8.15;;;;;;;7.79;44.30;97291.06;5020216;28;20036;-75
2021/04/05 08:12:17;;;;;;;14.18;6.53;;;;;;;7.94;43.85;97300.03;5029628;28;20034;-74
2021/04/05 08:15:20;;;;;;;16.88;8.65;;;;;;;8.01;42.86;97316.81;5077404;28;20022;-74
2021/04/05 08:18:02;;;;;;;22.85;10.80;;;;;;;8.07;42.92;97295.63;5098276;28;20498;-74
2021/04/05 08:20:34;;;;;;;20.23;10.82;;;;;;;8.11;42.77;97289.28;5112664;28;20112;-74
2021/04/05 08:23:14;;;;;;;12.95;6.15;;;;;;;8.15;43.41;97282.06;5104917;28;20055;-74
2021/04/05 08:26:02;;;;;;;;;;;;;;;8.29;43.43;97262.06;5031406;28;20024;-74
2021/04/05 08:28:46;;;;;;;11.57;6.53;;;;;;;8.42;42.82;97257.66;5043595;28;20317;-74
2021/04/05 08:31:42;;;;;;;24.98;12.57;;;;;;;8.52;42.80;97246.50;5007894;28;20030;-74
2021/04/05 08:34:13;;;;;;;9.50;6.15;;;;;;;8.61;43.06;97244.63;5007970;28;20026;-75
2021/04/05 08:36:50;;;;;;;17.45;9.15;;;;;;;8.72;42.75;97238.91;5034136;28;20020;-74
2021/04/05 08:39:38;;;;;;;17.08;9.82;;;;;;;8.88;42.72;97240.09;5031635;28;20428;-74
2021/04/05 08:42:26;;;;;;;14.55;7.60;;;;;;;8.97;41.24;97209.25;5007616;28;20082;-75
2021/04/05 08:44:57;;;;;;;13.98;7.60;;;;;;;9.06;41.75;97215.56;5008238;28;20044;-75
2021/04/05 08:47:28;;;;;;;25.92;20.08;;;;;;;9.19;41.58;97203.66;4992874;28;20116;-75
2021/04/05 08:50:03;;;;;;;20.80;10.93;;;;;;;9.35;41.72;97212.25;5007240;28;20018;-74
2021/04/05 08:52:34;;;;;;;19.15;8.30;;;;;;;9.53;41.25;97191.19;5010921;28;20034;-72
2021/04/05 08:55:02;;;;;;;16.92;7.78;;;;;;;9.70;41.00;97200.53;5039125;28;20367;-74
2021/04/05 08:57:33;;;;;;;28.70;11.18;;;;;;;9.76;39.37;97193.78;5061029;28;20077;-73
2021/04/05 09:00:11;;;;;;;33.50;11.90;;;;;;;9.81;39.79;97199.09;5071524;28;20041;-73
2021/04/05 09:02:53;;;;;;;17.40;7.70;;;;;;;9.91;39.75;97178.78;5043863;28;20031;-72
2021/04/05 09:05:21;;;;;;;30.08;13.77;;;;;;;10.05;39.58;97173.13;5093651;28;20127;-73
2021/04/05 09:07:46;;;;;;;48.60;18.50;;;;;;;10.09;39.95;97168.63;5032084;28;20039;-74
2021/04/05 09:10:13;;;;;;;28.63;10.85;;;;;;;10.12;39.44;97170.72;5028221;28;20025;-73
2021/04/05 09:12:42;;;;;;;75.20;22.65;;;;;;;10.13;40.10;97168.78;5006148;28;20034;-74
2021/04/05 09:15:43;;;;;;;41.78;14.70;;;;;;;10.14;38.66;97159.44;5020331;28;20025;-73
2021/04/05 09:18:25;;;;;;;55.47;20.77;;;;;;;10.01;38.71;97163.16;4992651;28;20030;-73
2021/04/05 09:21:08;;;;;;;18.70;7.40;;;;;;;9.93;39.35;97157.34;4992766;28;20038;-74
2021/04/05 09:23:48;;;;;;;40.35;15.43;;;;;;;9.87;38.69;97147.69;4992655;28;20546;-73
2021/04/05 09:26:34;;;;;;;37.70;11.27;;;;;;;9.93;39.58;97170.25;4992680;28;20034;-73
2021/04/05 09:29:12;;;;;;;31.95;10.68;;;;;;;10.03;39.90;97164.44;4999623;28;20402;-74
2021/04/05 09:31:55;;;;;;;36.38;11.35;;;;;;;10.09;39.64;97146.69;5052938;28;20055;-73
2021/04/05 09:34:20;;;;;;;35.13;12.38;;;;;;;10.13;39.79;97144.91;5097781;28;20038;-73
2021/04/05 09:37:17;;;;;;;21.67;8.13;;;;;;;10.04;39.12;97141.38;5115382;28;20112;-72
2021/04/05 09:39:55;;;;;;;20.67;7.50;;;;;;;9.95;38.91;97135.94;5107811;28;20032;-73
2021/04/05 09:42:42;;;;;;;18.33;7.47;;;;;;;9.93;39.00;97138.19;5103384;28;20469;-74
2021/04/05 09:45:16;;;;;;;31.48;12.38;;;;;;;9.86;39.25;97139.81;5039759;28;20113;-73
2021/04/05 09:48:03;;;;;;;41.70;13.88;;;;;;;9.73;39.80;97139.66;5036781;28;20389;-72
2021/04/05 09:50:38;;;;;;;37.95;12.65;;;;;;;9.64;40.18;97130.63;5021097;28;20030;-73
2021/04/05 09:53:30;;;;;;;39.05;14.32;;;;;;;9.56;40.45;97117.78;5028790;28;20045;-72
2021/04/05 09:56:02;;;;;;;24.52;10.02;;;;;;;9.58;40.37;97108.13;4978982;28;20026;-72
2021/04/05 09:58:33;;;;;;;24.98;10.40;;;;;;;9.77;40.70;97113.25;4981206;28;20026;-76
2021/04/05 10:01:08;;;;;;;20.45;8.98;;;;;;;9.93;40.39;97102.59;4988655;28;20034;-74
2021/04/05 10:03:46;;;;;;;32.80;14.77;;;;;;;10.14;39.79;97110.13;4988464;28;20030;-74
2021/04/05 10:06:15;;;;;;;14.25;7.05;;;;;;;10.36;38.50;97102.78;4985020;28;20050;-75
2021/04/05 10:08:43;;;;;;;14.80;7.27;;;;;;;10.49;39.12;97090.84;4983590;28;20083;-74
2021/04/05 10:11:10;;;;;;;26.35;11.70;;;;;;;10.63;39.89;97089.78;4984260;28;20050;-74
2021/04/05 10:13:44;;;;;;;14.35;7.55;;;;;;;10.83;39.07;97069.84;4985631;28;20099;-73
2021/04/05 10:16:10;;;;;;;22.90;12.27;;;;;;;11.02;39.05;97063.91;4975950;28;20022;-73
2021/04/05 10:18:36;;;;;;;38.15;20.30;;;;;;;11.20;38.88;97066.56;4974702;28;20487;-73
2021/04/05 10:21:05;;;;;;;83.85;54.35;;;;;;;11.31;38.39;97050.47;4980520;28;20730;-73
2021/04/05 10:23:31;;;;;;;13.70;7.10;;;;;;;11.41;38.02;97052.00;4985413;28;20033;-74
2021/04/05 10:25:59;;;;;;;23.50;16.10;;;;;;;11.46;37.51;97025.13;4984607;28;20022;-74
2021/04/05 10:28:32;;;;;;;20.35;12.45;;;;;;;11.61;37.18;97029.19;4985200;28;20052;-74
2021/04/05 10:31:03;;;;;;;26.90;14.15;;;;;;;11.79;37.65;97030.97;4985467;28;20040;-75
2021/04/05 10:33:34;;;;;;;13.70;6.40;;;;;;;11.97;37.22;97028.84;4986120;28;20030;-74
2021/04/05 10:36:06;;;;;;;17.42;8.07;;;;;;;12.18;36.82;97015.06;4985779;28;20118;-77
2021/04/05 10:38:35;;;;;;;15.73;6.75;;;;;;;12.39;36.29;97001.19;4975816;28;20079;-74
2021/04/05 10:41:00;;;;;;;14.73;6.38;;;;;;;12.49;35.42;97003.47;4977016;28;20034;-74
2021/04/05 10:43:32;;;;;;;12.13;5.80;;;;;;;12.45;35.77;96991.53;4982449;28;20425;-75
2021/04/05 10:46:06;;;;;;;12.18;6.43;;;;;;;12.38;33.89;96994.09;4986463;28;20595;-74
2021/04/05 10:48:46;;;;;;;16.95;7.68;;;;;;;12.20;34.13;96994.31;4986181;28;20026;-76
2021/04/05 10:51:30;;;;;;;20.40;8.45;;;;;;;12.07;35.93;96998.19;4986211;28;20025;-74
2021/04/05 10:54:09;;;;;;;13.10;5.70;;;;;;;11.95;34.39;97018.19;4986323;28;20544;-76
2021/04/05 10:56:43;;;;;;;12.18;6.45;;;;;;;11.84;34.25;97012.31;4981342;28;20037;-76
2021/04/05 10:59:16;;;;;;;11.13;5.53;;;;;;;11.87;34.63;97010.84;4976787;28;20026;-76
2021/04/05 11:01:46;;;;;;;11.93;6.13;;;;;;;11.96;35.31;97008.78;4976074;28;20027;-75
2021/04/05 11:04:13;;;;;;;13.55;5.40;;;;;;;12.00;34.11;97011.72;4984767;28;20466;-75
2021/04/05 11:06:41;;;;;;;10.38;6.22;;;;;;;12.00;34.34;97003.47;4985917;28;20045;-75
2021/04/05 11:09:08;;;;;;;11.32;5.47;;;;;;;12.08;34.72;96980.56;4980294;28;20489;-74
2021/04/05 11:11:37;;;;;;;12.98;5.70;;;;;;;12.18;34.12;96968.31;4987295;28;20034;-74
2021/04/05 11:14:09;;;;;;;12.68;6.80;;;;;;;12.29;34.56;96976.91;4987506;28;20034;-76
2021/04/05 11:16:35;;;;;;;14.38;7.45;;;;;;;12.38;34.10;96977.59;4984898;28;20087;-75
2021/04/05 11:19:06;;;;;;;11.95;6.05;;;;;;;12.44;33.26;96969.91;4975213;28;20033;-76
2021/04/05 11:21:36;;;;;;;12.25;6.40;;;;;;;12.44;33.50;96965.19;4975711;28;20578;-75
2021/04/05 11:24:03;;;;;;;11.38;5.32;;;;;;;12.44;33.29;96965.19;4981457;28;20030;-75
2021/04/05 11:26:34;;;;;;;8.50;5.80;;;;;;;12.50;33.52;96963.81;4982789;28;20041;-74
2021/04/05 11:29:03;;;;;;;14.18;7.38;;;;;;;12.61;32.39;96969.66;4982051;28;20127;-75
2021/04/05 11:31:36;;;;;;;11.35;5.10;;;;;;;12.54;32.71;96985.94;4982384;28;20056;-74
2021/04/05 11:34:02;;;;;;;10.02;5.78;;;;;;;12.56;33.17;96960.84;4980536;28;20427;-72
2021/04/05 11:36:39;;;;;;;11.23;6.05;;;;;;;12.58;34.14;96958.53;4982877;28;20026;-74
2021/04/05 11:39:09;;;;;;;10.25;6.50;;;;;;;12.60;33.11;96939.75;4979366;28;20137;-75
2021/04/05 11:41:36;;;;;;;12.40;6.07;;;;;;;12.60;33.43;96957.06;4977808;28;20032;-74
2021/04/05 11:44:02;;;;;;;28.45;15.13;;;;;;;12.58;33.46;96977.78;4974006;28;20486;-74
2021/04/05 11:46:31;;;;;;;12.90;6.50;;;;;;;12.41;33.06;96952.16;4980480;28;20092;-75
2021/04/05 11:49:08;;;;;;;11.67;5.93;;;;;;;12.37;33.44;96945.75;4982225;28;20030;-74
2021/04/05 11:51:43;;;;;;;9.77;5.60;;;;;;;12.29;33.87;96943.91;4981453;28;20633;-73
2021/04/05 11:54:22;;;;;;;8.32;5.80;;;;;;;12.32;33.76;96945.97;4964205;28;20026;-73
2021/04/05 11:56:49;;;;;;;11.02;6.50;;;;;;;12.54;34.96;96943.88;4980413;28;20034;-76
2021/04/05 11:59:27;;;;;;;10.95;5.78;;;;;;;12.73;33.82;96937.75;4981641;28;20058;-76